Time;durP1;ratioP1;P1;durP2;ratioP2;P2;SDS_P1;SDS_P2;PMS_P1;PMS_P2;Temp;Humidity;BMP_temperature;BMP_pressure;BME280_temperature;BME280_humidity;BME280_pressure;Samples;Min_cycle;Max_cycle;Signal;HPM_P1;HPM_P2
2021/01/07 00:01:10;;;;;;;42.55;17.13;;;;;;;-0.45;89.77;96473.63;5010111;28;20128;-67
2021/01/07 00:03:38;;;;;;;46.40;17.85;;;;;;;-0.45;90.91;96480.88;5011308;28;20042;-67
2021/01/07 00:06:10;;;;;;;45.72;17.10;;;;;;;-0.51;90.21;96472.13;5001982;28;20046;-67
2021/01/07 00:08:35;;;;;;;38.90;16.17;;;;;;;-0.50;90.42;96471.03;4980734;28;20041;-67
2021/01/07 00:11:02;;;;;;;48.65;18.55;;;;;;;-0.60;90.88;96476.59;4998826;28;20042;-67
2021/01/07 00:13:28;;;;;;;52.47;20.00;;;;;;;-0.49;90.98;96478.00;4997399;28;20068;-68
2021/01/07 00:15:53;;;;;;;45.05;18.77;;;;;;;-0.49;90.41;96477.19;5011256;28;20179;-68
2021/01/07 00:18:19;;;;;;;53.60;21.25;;;;;;;-0.64;90.53;96473.72;5000148;28;20052;-66
2021/01/07 00:20:44;;;;;;;56.42;21.80;;;;;;;-0.73;91.09;96464.75;4994095;28;20049;-66
2021/01/07 00:23:10;;;;;;;57.30;20.23;;;;;;;-0.68;91.42;96471.94;5001927;28;20052;-67
2021/01/07 00:25:35;;;;;;;50.40;18.77;;;;;;;-0.69;91.26;96473.81;5004077;28;20049;-67
2021/01/07 00:28:01;;;;;;;48.78;18.55;;;;;;;-0.60;91.03;96482.00;5010763;28;20077;-68
2021/01/07 00:30:27;;;;;;;45.60;17.02;;;;;;;-0.55;91.28;96478.41;5010018;28;20046;-66
2021/01/07 00:32:52;;;;;;;42.65;17.70;;;;;;;-0.49;91.08;96478.00;5011064;28;20056;-67
2021/01/07 00:35:18;;;;;;;40.33;18.10;;;;;;;-0.39;90.68;96475.09;5010988;28;20439;-66
2021/01/07 00:37:43;;;;;;;41.83;17.67;;;;;;;-0.41;90.69;96474.59;5017791;28;20059;-68
2021/01/07 00:40:09;;;;;;;47.03;18.08;;;;;;;-0.44;90.36;96475.19;5000844;28;20065;-66
2021/01/07 00:42:34;;;;;;;45.20;17.60;;;;;;;-0.44;90.63;96479.78;5008828;28;20065;-67
2021/01/07 00:45:00;;;;;;;41.08;16.55;;;;;;;-0.40;90.29;96478.91;5003420;28;20041;-67
2021/01/07 00:47:25;;;;;;;42.20;17.48;;;;;;;-0.40;90.44;96476.22;4991128;28;20046;-68
2021/01/07 00:49:50;;;;;;;43.20;18.55;;;;;;;-0.35;90.67;96480.66;5008422;28;20045;-67
2021/01/07 00:52:16;;;;;;;40.55;16.83;;;;;;;-0.39;90.28;96472.41;5005646;28;20136;-67
2021/01/07 00:54:42;;;;;;;44.85;18.95;;;;;;;-0.45;90.53;96481.69;4990338;28;20038;-66
2021/01/07 00:57:07;;;;;;;42.10;18.25;;;;;;;-0.43;90.74;96476.00;5002716;28;20108;-69
2021/01/07 00:59:33;;;;;;;46.55;19.20;;;;;;;-0.41;90.55;96473.81;5013406;28;20064;-68
2021/01/07 01:01:58;;;;;;;42.13;17.45;;;;;;;-0.42;91.07;96472.22;5009535;28;20041;-68
2021/01/07 01:04:24;;;;;;;45.85;18.60;;;;;;;-0.43;90.87;96476.00;5007579;28;20118;-68
2021/01/07 01:06:49;;;;;;;50.60;18.80;;;;;;;-0.43;90.98;96474.13;5005594;28;20046;-68
2021/01/07 01:09:14;;;;;;;45.15;18.20;;;;;;;-0.47;90.88;96483.88;5005154;28;20038;-66
2021/01/07 01:11:47;;;;;;;47.88;19.25;;;;;;;-0.49;91.11;96475.28;5019884;28;20056;-67
2021/01/07 01:14:17;;;;;;;45.00;19.27;;;;;;;-0.46;91.20;96482.00;5012687;28;20398;-68
2021/01/07 01:16:48;;;;;;;44.50;17.02;;;;;;;-0.43;90.92;96479.50;5021782;28;20037;-68
2021/01/07 01:19:15;;;;;;;47.50;18.10;;;;;;;-0.42;90.91;96478.38;5000852;28;20042;-66
2021/01/07 01:21:40;;;;;;;42.63;18.25;;;;;;;-0.41;90.55;96479.97;4996273;28;20038;-68
2021/01/07 01:24:06;;;;;;;52.15;19.48;;;;;;;-0.52;90.74;96478.59;5005922;28;20563;-66
2021/01/07 01:26:32;;;;;;;49.78;18.80;;;;;;;-0.46;90.86;96487.38;5014807;28;20065;-66
2021/01/07 01:28:59;;;;;;;52.60;19.98;;;;;;;-0.57;91.04;96483.31;5017715;28;20564;-65
2021/01/07 01:31:24;;;;;;;46.38;19.40;;;;;;;-0.77;91.21;96478.00;5020011;28;20033;-66
2021/01/07 01:33:49;;;;;;;43.97;18.98;;;;;;;-0.82;91.41;96486.16;5013018;28;20124;-64
2021/01/07 01:36:15;;;;;;;52.50;20.92;;;;;;;-0.89;91.86;96493.03;4998778;28;20044;-65
2021/01/07 01:38:40;;;;;;;50.58;19.33;;;;;;;-0.89;92.61;96484.97;5011820;28;20052;-67
2021/01/07 01:41:07;;;;;;;55.95;19.85;;;;;;;-0.83;92.73;96483.78;5004041;28;20041;-67
2021/01/07 01:43:35;;;;;;;52.08;20.80;;;;;;;-0.78;92.35;96486.38;5000561;28;20069;-66
2021/01/07 01:46:02;;;;;;;50.38;21.67;;;;;;;-0.69;92.76;96484.56;5007338;28;20053;-66
2021/01/07 01:48:29;;;;;;;48.00;19.60;;;;;;;-0.67;92.84;96485.06;5005640;28;20148;-67
2021/01/07 01:50:54;;;;;;;50.55;20.17;;;;;;;-0.71;92.63;96491.38;5015223;28;20072;-68
2021/01/07 01:53:23;;;;;;;50.83;21.20;;;;;;;-0.66;92.66;96485.88;5004424;28;20479;-67
2021/01/07 01:55:49;;;;;;;56.90;21.17;;;;;;;-0.66;92.48;96478.59;5002461;28;20056;-67
2021/01/07 01:58:15;;;;;;;54.22;20.90;;;;;;;-0.67;92.32;96484.28;5005538;28;20104;-67
2021/01/07 02:00:41;;;;;;;46.65;19.48;;;;;;;-0.58;92.29;96479.78;5005762;28;20066;-66
2021/01/07 02:03:07;;;;;;;51.55;20.08;;;;;;;-0.60;92.10;96482.78;4994733;28;20038;-67
2021/01/07 02:05:34;;;;;;;45.50;18.50;;;;;;;-0.64;92.00;96475.63;5014283;28;20891;-68
2021/01/07 02:08:03;;;;;;;58.65;19.63;;;;;;;-0.72;92.32;96477.13;5004584;28;20390;-68
2021/01/07 02:10:33;;;;;;;53.70;19.77;;;;;;;-0.71;92.26;96477.91;4982885;28;20122;-68
2021/01/07 02:13:01;;;;;;;47.25;18.48;;;;;;;-0.78;92.28;96478.31;5012788;28;20064;-68
2021/01/07 02:15:26;;;;;;;49.35;18.75;;;;;;;-0.81;92.05;96478.91;4990606;28;20685;-68
2021/01/07 02:17:54;;;;;;;49.65;19.23;;;;;;;-0.65;92.29;96474.84;5006510;28;20057;-67
2021/01/07 02:20:25;;;;;;;44.10;18.13;;;;;;;-0.57;91.82;96475.22;5003747;28;20038;-68
2021/01/07 02:22:55;;;;;;;43.70;18.13;;;;;;;-0.47;91.44;96472.31;4996143;28;20495;-67
2021/01/07 02:25:20;;;;;;;;;;;;;;;-0.39;91.11;96467.03;5000754;28;20072;-67
2021/01/07 02:27:46;;;;;;;42.05;17.35;;;;;;;-0.39;90.81;96466.22;5018062;28;19948;-67
2021/01/07 02:30:12;;;;;;;49.00;19.45;;;;;;;-0.42;90.45;96466.81;5015131;28;20049;-68
2021/01/07 02:32:38;;;;;;;47.42;19.77;;;;;;;-0.43;91.01;96467.94;5020029;28;20140;-68
2021/01/07 02:35:04;;;;;;;48.72;19.58;;;;;;;-0.45;90.95;96470.94;5016554;28;20128;-68
2021/01/07 02:37:29;;;;;;;47.80;18.60;;;;;;;-0.54;90.85;96464.66;5019034;28;20061;-68
2021/01/07 02:39:55;;;;;;;48.83;19.63;;;;;;;-0.57;91.22;96467.94;5007184;28;20076;-68
2021/01/07 02:42:20;;;;;;;48.53;18.95;;;;;;;-0.57;91.25;96467.94;4992919;28;20046;-68
2021/01/07 02:44:46;;;;;;;47.90;20.05;;;;;;;-0.53;91.32;96466.25;4963906;28;20096;-68
2021/01/07 02:47:11;;;;;;;48.03;19.48;;;;;;;-0.48;91.77;96468.03;4997370;28;20042;-67
2021/01/07 02:49:37;;;;;;;48.65;19.13;;;;;;;-0.50;91.28;96468.34;5012838;28;20056;-67
2021/01/07 02:52:02;;;;;;;47.03;19.13;;;;;;;-0.48;91.26;96468.03;5018607;28;20124;-67
2021/01/07 02:54:29;;;;;;;49.47;19.02;;;;;;;-0.47;91.16;96467.75;5005615;28;20070;-67
2021/01/07 02:56:54;;;;;;;47.25;18.80;;;;;;;-0.47;90.96;96470.44;5002297;28;20612;-67
2021/01/07 02:59:20;;;;;;;47.83;19.08;;;;;;;-0.48;91.38;96466.13;5001032;28;20049;-67
2021/01/07 03:01:45;;;;;;;50.90;20.35;;;;;;;-0.50;91.26;96471.03;4998503;28;20068;-68
2021/01/07 03:04:10;;;;;;;55.95;18.58;;;;;;;-0.52;91.21;96472.41;4993831;28;20046;-69
2021/01/07 03:06:36;;;;;;;50.45;18.98;;;;;;;-0.46;91.28;96466.63;5002516;28;20050;-69
2021/01/07 03:09:03;;;;;;;44.35;19.38;;;;;;;-0.45;91.24;96472.81;5017326;28;20128;-68
2021/01/07 03:11:29;;;;;;;48.05;19.02;;;;;;;-0.45;90.65;96462.84;4979683;28;20089;-67
2021/01/07 03:13:54;;;;;;;50.88;19.45;;;;;;;-0.48;90.73;96468.03;4996957;28;20045;-67
2021/01/07 03:16:20;;;;;;;51.50;18.92;;;;;;;-0.57;91.22;96469.84;4988077;28;20573;-68
2021/01/07 03:18:45;;;;;;;47.90;20.05;;;;;;;-0.62;91.42;96468.03;4998552;28;20042;-67
2021/01/07 03:21:11;;;;;;;57.55;21.00;;;;;;;-0.73;91.58;96467.44;4994216;28;20136;-67
2021/01/07 03:23:36;;;;;;;55.10;21.42;;;;;;;-0.81;91.44;96458.19;5015760;28;20572;-67
2021/01/07 03:26:02;;;;;;;51.60;19.60;;;;;;;-0.82;92.07;96463.88;5000579;28;20088;-67
2021/01/07 03:28:28;;;;;;;49.63;20.33;;;;;;;-0.75;92.03;96463.47;5016852;28;20127;-67
2021/01/07 03:30:53;;;;;;;52.70;19.10;;;;;;;-0.70;91.81;96457.97;5019214;28;20033;-67
2021/01/07 03:33:19;;;;;;;49.88;19.25;;;;;;;-0.68;92.12;96453.13;5008954;28;20037;-68
2021/01/07 03:35:45;;;;;;;50.15;18.42;;;;;;;-0.71;91.85;96453.72;5003432;28;20053;-68
2021/01/07 03:38:10;;;;;;;48.97;17.60;;;;;;;-0.62;91.85;96460.75;4993691;28;20403;-68
2021/01/07 03:40:36;;;;;;;47.58;18.88;;;;;;;-0.52;91.50;96458.97;4996740;28;20055;-67
2021/01/07 03:43:01;;;;;;;45.80;19.00;;;;;;;-0.53;91.54;96458.16;4998804;28;20038;-67
2021/01/07 03:45:27;;;;;;;46.53;19.52;;;;;;;-0.55;91.39;96455.00;4991713;28;20403;-67
2021/01/07 03:47:54;;;;;;;62.65;22.77;;;;;;;-0.68;91.82;96456.59;5010824;28;20150;-67
2021/01/07 03:50:20;;;;;;;61.75;23.95;;;;;;;-0.71;91.59;96453.72;5003096;28;20049;-67
2021/01/07 03:52:45;;;;;;;56.28;21.52;;;;;;;-0.76;91.80;96451.91;5017002;28;20052;-67
2021/01/07 03:55:11;;;;;;;53.38;20.83;;;;;;;-0.68;91.83;96453.13;5006161;28;20391;-67
2021/01/07 03:57:37;;;;;;;48.58;19.35;;;;;;;-0.66;91.95;96459.78;5018244;28;20146;-67
2021/01/07 04:00:05;;;;;;;49.10;19.98;;;;;;;-0.75;91.88;96453.50;4995458;28;20087;-67
2021/01/07 04:02:31;;;;;;;45.20;19.20;;;;;;;-0.61;91.93;96458.88;5003883;28;20490;-68
2021/01/07 04:04:56;;;;;;;43.90;18.52;;;;;;;-0.61;91.65;96459.69;5017450;28;20052;-68
2021/01/07 04:07:22;;;;;;;47.60;19.60;;;;;;;-0.56;92.00;96455.28;4987377;28;20148;-67
2021/01/07 04:09:47;;;;;;;45.35;17.02;;;;;;;-0.51;91.86;96452.50;5015849;28;20038;-67
2021/01/07 04:12:13;;;;;;;52.20;19.45;;;;;;;-0.60;91.74;96455.88;5013488;28;20140;-67
2021/01/07 04:14:38;;;;;;;46.55;18.67;;;;;;;-0.67;91.34;96452.00;5014933;28;20080;-68
2021/01/07 04:17:04;;;;;;;50.22;18.55;;;;;;;-0.76;91.63;96451.91;5019038;28;20203;-68
2021/01/07 04:19:29;;;;;;;46.45;18.38;;;;;;;-0.95;92.39;96454.72;5009256;28;20132;-68
2021/01/07 04:21:56;;;;;;;52.50;19.73;;;;;;;-1.01;92.85;96456.69;5003721;28;20045;-68
2021/01/07 04:24:22;;;;;;;49.20;20.63;;;;;;;-0.96;92.95;96448.50;5004226;28;21881;-67
2021/01/07 04:26:49;;;;;;;50.83;20.13;;;;;;;-0.90;93.13;96457.31;5017790;28;20038;-66
2021/01/07 04:29:15;;;;;;;52.15;19.35;;;;;;;-0.85;93.11;96456.38;5018270;28;20041;-66
2021/01/07 04:31:41;;;;;;;51.88;19.52;;;;;;;-0.75;93.00;96452.72;5017736;28;20423;-67
2021/01/07 04:34:06;;;;;;;50.08;19.65;;;;;;;-0.82;92.67;96453.13;5014594;28;20041;-66
2021/01/07 04:36:33;;;;;;;46.42;20.08;;;;;;;-0.85;92.87;96451.00;5024135;28;20038;-67
2021/01/07 04:38:58;;;;;;;48.70;18.98;;;;;;;-0.77;92.98;96451.13;5027135;28;20042;-66
2021/01/07 04:41:24;;;;;;;43.40;18.80;;;;;;;-0.72;92.55;96455.59;5020051;28;20475;-68
2021/01/07 04:43:57;;;;;;;51.00;19.83;;;;;;;-0.63;92.71;96445.75;5017425;28;20050;-67
2021/01/07 04:46:23;;;;;;;49.45;20.17;;;;;;;-0.53;92.28;96443.94;5014596;28;20631;-67
2021/01/07 04:48:48;;;;;;;51.35;19.10;;;;;;;-0.48;91.27;96441.94;5023112;28;20494;-66
2021/01/07 04:51:14;;;;;;;47.55;19.13;;;;;;;-0.46;91.64;96450.50;5011278;28;20033;-67
2021/01/07 04:53:40;;;;;;;55.53;22.20;;;;;;;-0.47;91.02;96446.22;5021215;28;20551;-66
2021/01/07 04:56:05;;;;;;;52.10;19.08;;;;;;;-0.42;91.11;96445.31;5016310;28;20141;-66
2021/01/07 04:58:30;;;;;;;50.25;20.20;;;;;;;-0.40;91.19;96441.22;5020487;28;20037;-66
2021/01/07 05:00:56;;;;;;;52.88;21.05;;;;;;;-0.42;91.00;96442.63;5022147;28;20472;-66
2021/01/07 05:03:23;;;;;;;54.20;21.73;;;;;;;-0.47;91.59;96440.84;5028644;28;20487;-66
2021/01/07 05:05:50;;;;;;;59.83;21.65;;;;;;;-0.44;91.04;96448.28;5026218;28;20046;-66
2021/01/07 05:08:19;;;;;;;49.53;19.42;;;;;;;-0.46;91.51;96447.81;5014714;28;20148;-68
2021/01/07 05:10:50;;;;;;;51.30;19.77;;;;;;;-0.42;91.31;96440.72;5005077;28;20041;-68
2021/01/07 05:13:23;;;;;;;49.53;19.67;;;;;;;-0.40;90.82;96437.72;5011784;28;20461;-65
2021/01/07 05:15:49;;;;;;;52.33;19.55;;;;;;;-0.41;91.32;96438.84;5020320;28;20048;-65
2021/01/07 05:18:15;;;;;;;53.88;20.63;;;;;;;-0.42;91.75;96440.72;5000854;28;20034;-66
2021/01/07 05:20:41;;;;;;;50.72;18.83;;;;;;;-0.54;91.73;96443.16;5001976;28;20104;-66
2021/01/07 05:23:07;;;;;;;54.50;21.13;;;;;;;-0.63;91.53;96451.13;5016265;28;20120;-63
2021/01/07 05:25:33;;;;;;;54.28;20.80;;;;;;;-0.72;91.61;96446.72;5021777;28;20042;-64
2021/01/07 05:28:03;;;;;;;58.35;21.15;;;;;;;-0.76;91.77;96446.53;5009662;28;20052;-65
2021/01/07 05:30:32;;;;;;;48.40;19.02;;;;;;;-0.77;91.70;96450.31;5007610;28;20045;-65
2021/01/07 05:33:09;;;;;;;59.40;22.27;;;;;;;-0.81;92.22;96450.13;4997881;28;20037;-65
2021/01/07 05:35:36;;;;;;;51.90;19.30;;;;;;;-0.76;92.68;96457.28;5016865;28;20043;-64
2021/01/07 05:38:06;;;;;;;59.67;22.50;;;;;;;-0.61;92.14;96454.31;5020686;28;20045;-69
2021/01/07 05:40:34;;;;;;;55.42;20.90;;;;;;;-0.53;92.45;96444.72;5018451;28;20136;-61
2021/01/07 05:43:12;;;;;;;51.42;20.17;;;;;;;-0.53;92.33;96443.94;5020634;28;20044;-65
2021/01/07 05:45:39;;;;;;;53.50;19.83;;;;;;;-0.56;92.26;96441.84;5021080;28;20409;-67
2021/01/07 05:48:05;;;;;;;55.80;21.02;;;;;;;-0.67;92.14;96444.72;5016125;28;20115;-70
2021/01/07 05:50:39;;;;;;;53.78;20.10;;;;;;;-0.77;92.29;96436.88;5021035;28;20041;-65
2021/01/07 05:53:05;;;;;;;57.72;20.75;;;;;;;-0.95;92.54;96435.88;5013977;28;20045;-66
2021/01/07 05:55:31;;;;;;;61.90;22.60;;;;;;;-1.06;92.92;96440.66;5019368;28;20053;-65
2021/01/07 05:58:01;;;;;;;57.13;22.73;;;;;;;-1.18;93.78;96451.88;5020263;28;20038;-66
2021/01/07 06:00:33;;;;;;;56.13;22.23;;;;;;;-1.07;93.88;96447.13;5014367;28;20490;-61
2021/01/07 06:03:00;;;;;;;61.13;24.00;;;;;;;-0.97;93.83;96438.09;5017635;28;20046;-64
2021/01/07 06:05:27;;;;;;;55.75;21.08;;;;;;;-0.79;93.20;96439.06;4993391;28;20159;-64
2021/01/07 06:07:54;;;;;;;67.07;24.88;;;;;;;-0.61;93.03;96442.75;5002876;28;20112;-64
2021/01/07 06:10:20;;;;;;;55.35;21.55;;;;;;;-0.57;92.74;96441.03;5014984;28;20037;-66
2021/01/07 06:12:46;;;;;;;55.88;22.08;;;;;;;-0.70;92.20;96444.53;5020837;28;20041;-63
2021/01/07 06:15:15;;;;;;;56.67;22.58;;;;;;;-0.81;92.49;96442.06;5011273;28;20435;-69
2021/01/07 06:17:42;;;;;;;64.70;25.80;;;;;;;-0.77;92.78;96439.56;5019635;28;20041;-66
2021/01/07 06:20:21;;;;;;;58.90;24.15;;;;;;;-0.95;92.91;96452.03;5016246;28;20641;-60
2021/01/07 06:22:53;;;;;;;63.55;23.63;;;;;;;-1.05;93.43;96446.81;5019703;28;20048;-65
2021/01/07 06:25:21;;;;;;;59.20;22.60;;;;;;;-1.09;94.12;96452.00;5018014;28;20042;-62
2021/01/07 06:27:48;;;;;;;65.85;21.83;;;;;;;-1.11;94.48;96446.13;5019870;28;20056;-64
2021/01/07 06:30:16;;;;;;;62.25;21.65;;;;;;;-1.04;94.38;96453.81;5013054;28;20042;-70
2021/01/07 06:33:00;;;;;;;63.08;21.80;;;;;;;-0.97;94.81;96446.16;5017213;28;20128;-63
2021/01/07 06:35:33;;;;;;;67.07;23.15;;;;;;;-0.28;96.40;96448.75;5013709;28;20128;-64
2021/01/07 06:37:58;;;;;;;66.47;24.17;;;;;;;-0.17;95.84;96451.25;5019949;28;20410;-62
2021/01/07 06:40:24;;;;;;;54.75;22.23;;;;;;;-0.25;95.18;96444.69;4997275;28;20072;-64
2021/01/07 06:42:51;;;;;;;57.72;21.85;;;;;;;-0.28;94.85;96458.75;5014960;28;20040;-63
2021/01/07 06:45:22;;;;;;;54.30;20.98;;;;;;;-0.29;94.36;96454.44;5014741;28;20049;-68
2021/01/07 06:47:47;;;;;;;57.42;21.15;;;;;;;-0.26;94.06;96453.84;5012806;28;20064;-66
2021/01/07 06:50:13;;;;;;;58.42;21.05;;;;;;;-0.21;93.84;96442.97;5005665;28;20045;-64
2021/01/07 06:52:41;;;;;;;57.70;21.75;;;;;;;-0.21;93.62;96454.53;5019262;28;20042;-64
2021/01/07 06:55:12;;;;;;;52.63;19.75;;;;;;;-0.24;92.79;96443.56;5014967;28;20118;-62
2021/01/07 06:57:47;;;;;;;51.45;20.58;;;;;;;-0.42;91.92;96451.47;5019193;28;20049;-65
2021/01/07 07:00:16;;;;;;;53.17;20.13;;;;;;;-0.56;92.50;96456.06;5015145;28;20069;-66
2021/01/07 07:02:57;;;;;;;52.92;19.02;;;;;;;-0.56;92.84;96455.28;5016592;28;20517;-63
2021/01/07 07:05:25;;;;;;;53.13;21.40;;;;;;;-0.54;92.61;96461.97;4990237;28;20092;-62
2021/01/07 07:08:10;;;;;;;49.50;20.80;;;;;;;-0.54;92.31;96456.59;5017584;28;20049;-65
2021/01/07 07:10:35;;;;;;;52.05;20.23;;;;;;;-0.51;92.44;96464.03;5019158;28;20041;-64
2021/01/07 07:13:13;;;;;;;49.20;20.00;;;;;;;-0.47;92.14;96453.47;5020028;28;20140;-65
2021/01/07 07:15:39;;;;;;;55.45;21.10;;;;;;;-0.50;91.95;96464.88;5014030;28;20041;-65
2021/01/07 07:18:05;;;;;;;50.28;20.13;;;;;;;-0.73;91.81;96462.06;5010328;28;20045;-69
2021/01/07 07:20:38;;;;;;;58.08;21.45;;;;;;;-0.85;92.38;96470.63;4998644;28;20037;-64
2021/01/07 07:23:18;;;;;;;67.88;23.58;;;;;;;-1.05;93.10;96479.88;4998234;28;20049;-68
2021/01/07 07:25:49;;;;;;;56.83;21.48;;;;;;;-1.11;93.64;96478.38;4984689;28;20137;-60
2021/01/07 07:28:15;;;;;;;61.40;21.05;;;;;;;-1.08;93.38;96482.34;4991945;28;20065;-64
2021/01/07 07:30:41;;;;;;;66.90;24.42;;;;;;;-1.16;93.50;96478.47;5000259;28;20196;-63
2021/01/07 07:33:06;;;;;;;61.95;23.35;;;;;;;-1.19;94.17;96479.88;4992803;28;20042;-68
2021/01/07 07:35:34;;;;;;;69.95;22.52;;;;;;;-1.11;94.42;96480.28;4979711;28;20042;-65
2021/01/07 07:38:00;;;;;;;71.93;27.25;;;;;;;-0.99;94.51;96480.56;4980167;28;20049;-65
2021/01/07 07:40:37;;;;;;;59.20;24.48;;;;;;;-0.92;94.24;96486.34;4971501;28;20112;-61
2021/01/07 07:43:05;;;;;;;65.13;23.73;;;;;;;-1.00;93.96;96487.84;4998300;28;20054;-65
2021/01/07 07:45:33;;;;;;;69.35;24.98;;;;;;;-0.94;94.03;96490.44;4995896;28;20076;-65
2021/01/07 07:48:00;;;;;;;51.85;21.00;;;;;;;-0.89;93.84;96488.47;4998645;28;20042;-64
2021/01/07 07:50:28;;;;;;;69.68;24.83;;;;;;;-0.85;94.10;96491.34;4991138;28;20908;-64
2021/01/07 07:53:22;;;;;;;63.65;23.45;;;;;;;-0.88;93.67;96489.25;4981727;28;20061;-64
2021/01/07 07:55:48;;;;;;;57.78;22.10;;;;;;;-0.89;93.90;96496.53;4980894;28;20099;-66
2021/01/07 07:58:15;;;;;;;65.43;22.92;;;;;;;-1.01;94.20;96488.13;4985865;28;20069;-68
2021/01/07 08:00:51;;;;;;;64.15;22.48;;;;;;;-1.17;94.76;96490.28;4999543;28;20045;-65
2021/01/07 08:03:31;;;;;;;62.92;22.42;;;;;;;-1.26;95.61;96479.47;5001870;28;20068;-65
2021/01/07 08:05:58;;;;;;;66.40;22.90;;;;;;;-1.23;95.51;96491.50;5011317;28;20081;-61
2021/01/07 08:08:26;;;;;;;60.33;20.98;;;;;;;-1.18;95.41;96489.50;4990823;28;20054;-65
2021/01/07 08:10:53;;;;;;;71.13;23.17;;;;;;;-1.04;95.35;96494.13;5007450;28;20045;-63
2021/01/07 08:13:20;;;;;;;67.60;23.75;;;;;;;-0.92;95.41;96493.63;5007485;28;20383;-65
2021/01/07 08:15:52;;;;;;;60.00;21.90;;;;;;;-0.99;94.95;96496.69;5013922;28;20041;-65
2021/01/07 08:18:23;;;;;;;72.10;25.80;;;;;;;-1.08;94.82;96504.69;5001790;28;20042;-66
2021/01/07 08:20:53;;;;;;;69.35;21.95;;;;;;;-1.14;94.95;96499.69;5013154;28;20445;-66
2021/01/07 08:23:21;;;;;;;65.35;23.63;;;;;;;-1.22;95.43;96501.16;5003595;28;20115;-66
2021/01/07 08:25:51;;;;;;;69.95;24.58;;;;;;;-1.22;95.55;96499.25;5010868;28;20049;-65
2021/01/07 08:28:38;;;;;;;101.25;44.25;;;;;;;-1.30;95.60;96491.88;5011105;28;20128;-65
2021/01/07 08:31:18;;;;;;;70.63;27.77;;;;;;;-1.24;95.91;96498.75;5014326;28;20106;-71
2021/01/07 08:33:44;;;;;;;76.68;29.13;;;;;;;-1.25;95.72;96505.22;5007798;28;20049;-65
2021/01/07 08:36:12;;;;;;;75.55;28.70;;;;;;;-1.29;95.83;96498.84;5006518;28;20061;-71
2021/01/07 08:38:39;;;;;;;199.20;75.38;;;;;;;-1.19;95.67;96500.56;5011084;28;20769;-67
2021/01/07 08:41:12;;;;;;;71.38;25.83;;;;;;;-1.17;95.52;96495.66;5008530;28;20410;-68
2021/01/07 08:43:38;;;;;;;91.43;38.85;;;;;;;-1.21;95.42;96498.16;5010759;28;20054;-64
2021/01/07 08:46:17;;;;;;;80.88;32.60;;;;;;;-1.13;95.21;96496.69;5001079;28;20042;-69
2021/01/07 08:48:44;;;;;;;61.00;21.43;;;;;;;-1.16;94.92;96499.97;5010434;28;20060;-67
2021/01/07 08:51:19;;;;;;;60.45;21.52;;;;;;;-1.10;95.08;96504.16;5008105;28;20054;-66
2021/01/07 08:53:53;;;;;;;62.30;23.90;;;;;;;-0.99;95.31;96500.22;4996341;28;20052;-66
2021/01/07 08:56:36;;;;;;;56.03;21.48;;;;;;;-0.74;94.83;96492.75;4985469;28;20457;-68
2021/01/07 08:59:22;;;;;;;64.30;26.50;;;;;;;-0.88;94.78;96487.38;5023515;28;20048;-69
2021/01/07 09:01:48;;;;;;;66.70;25.13;;;;;;;-0.93;95.13;96487.47;5021032;28;20116;-64
2021/01/07 09:04:23;;;;;;;65.55;23.08;;;;;;;-0.92;95.45;96496.31;5011145;28;20077;-66
2021/01/07 09:07:06;;;;;;;63.88;24.38;;;;;;;-0.86;95.16;96495.94;5006806;28;20045;-61
2021/01/07 09:09:51;;;;;;;59.95;22.63;;;;;;;-0.69;94.85;96498.03;4996776;28;20076;-64
2021/01/07 09:12:17;;;;;;;56.75;21.95;;;;;;;-0.66;94.38;96493.97;5003322;28;20048;-63
2021/01/07 09:14:42;;;;;;;59.28;21.30;;;;;;;-0.54;94.12;96496.13;5021874;28;20037;-66
2021/01/07 09:17:07;;;;;;;53.40;20.92;;;;;;;-0.40;93.15;96496.91;5005379;28;20037;-65
2021/01/07 09:19:33;;;;;;;48.65;20.38;;;;;;;-0.52;93.12;96493.94;5016982;28;20507;-66
2021/01/07 09:22:02;;;;;;;66.85;26.98;;;;;;;-0.77;94.41;96487.97;4998952;28;20707;-62
2021/01/07 09:24:46;;;;;;;52.30;21.80;;;;;;;-0.79;93.72;96490.16;4991653;28;20107;-67
2021/01/07 09:27:14;;;;;;;55.03;21.45;;;;;;;-0.64;93.72;96486.38;5024830;28;20056;-68
2021/01/07 09:29:40;;;;;;;50.63;20.38;;;;;;;-0.67;92.54;96489.66;5015062;28;20038;-65
2021/01/07 09:32:08;;;;;;;48.42;21.48;;;;;;;-0.46;92.43;96492.75;5006999;28;20046;-66
2021/01/07 09:34:34;;;;;;;44.70;19.13;;;;;;;-0.73;92.58;96497.03;5007989;28;20038;-64
2021/01/07 09:37:04;;;;;;;53.10;19.95;;;;;;;-0.67;92.42;96495.81;5009974;28;20065;-65
2021/01/07 09:39:30;;;;;;;50.47;21.48;;;;;;;-0.84;92.43;96495.66;5014575;28;20120;-65
2021/01/07 09:41:56;;;;;;;48.60;21.10;;;;;;;-0.91;93.15;96493.34;4969639;28;20073;-66
2021/01/07 09:44:22;;;;;;;54.47;21.23;;;;;;;-0.91;93.53;96501.41;4996639;28;21160;-64
2021/01/07 09:46:51;;;;;;;48.13;19.55;;;;;;;-0.91;93.75;96501.41;5013889;28;20044;-64
2021/01/07 09:49:16;;;;;;;55.17;21.70;;;;;;;-0.86;93.65;96501.31;4997704;28;20513;-67
2021/01/07 09:51:42;;;;;;;57.47;20.77;;;;;;;-0.61;93.87;96502.72;4995539;28;20033;-66
2021/01/07 09:54:07;;;;;;;53.72;22.08;;;;;;;-0.72;92.04;96497.81;5006391;28;20444;-67
2021/01/07 09:56:33;;;;;;;54.08;21.45;;;;;;;-0.74;92.58;96497.31;5021022;28;20069;-64
2021/01/07 09:58:58;;;;;;;45.03;19.00;;;;;;;-0.32;91.66;96498.13;5003865;28;20095;-65
2021/01/07 10:01:24;;;;;;;49.45;20.35;;;;;;;-0.11;90.09;96499.28;5013498;28;20118;-63
2021/01/07 10:03:49;;;;;;;51.88;22.38;;;;;;;-0.21;90.56;96492.22;5017369;28;20045;-66
2021/01/07 10:06:15;;;;;;;50.38;21.45;;;;;;;0.09;89.80;96495.34;5004345;28;20465;-64
2021/01/07 10:08:40;;;;;;;52.65;22.45;;;;;;;0.41;88.13;96485.44;5015539;28;20577;-67
2021/01/07 10:11:08;;;;;;;47.50;20.48;;;;;;;0.64;85.63;96485.44;5003983;28;20200;-68
2021/01/07 10:13:34;;;;;;;43.17;19.10;;;;;;;0.56;85.87;96487.00;5011558;28;20065;-67
2021/01/07 10:15:59;;;;;;;42.50;20.42;;;;;;;0.57;85.87;96492.06;5010719;28;20092;-66
2021/01/07 10:18:24;;;;;;;52.17;20.27;;;;;;;0.58;86.11;96490.19;5001529;28;20426;-65
2021/01/07 10:20:50;;;;;;;48.67;20.77;;;;;;;0.37;86.14;96487.16;4998419;28;20044;-63
2021/01/07 10:23:17;;;;;;;34.55;16.63;;;;;;;-0.14;88.21;96496.41;4996511;28;20061;-67
2021/01/07 10:25:46;;;;;;;41.70;16.23;;;;;;;0.01;88.12;96484.50;5009465;28;20053;-65
2021/01/07 10:28:11;;;;;;;38.28;16.48;;;;;;;-0.47;89.42;96486.59;5011624;28;20095;-67
2021/01/07 10:30:37;;;;;;;40.95;16.52;;;;;;;-0.60;90.34;96484.69;5016093;28;20064;-66
2021/01/07 10:33:03;;;;;;;38.72;16.55;;;;;;;-0.36;89.78;96483.66;5015161;28;20114;-68
2021/01/07 10:35:29;;;;;;;41.50;16.55;;;;;;;-0.36;89.94;96471.03;4985778;28;20042;-65
2021/01/07 10:37:58;;;;;;;51.25;22.77;;;;;;;-0.61;90.81;96475.81;5012078;28;20034;-65
2021/01/07 10:40:30;;;;;;;39.17;19.15;;;;;;;-0.78;91.34;96478.31;5011418;28;20751;-65
2021/01/07 10:42:58;;;;;;;41.65;17.58;;;;;;;-0.54;90.96;96477.31;5018041;28;20068;-67
2021/01/07 10:45:24;;;;;;;38.58;15.90;;;;;;;-0.67;90.78;96477.00;5010872;28;20796;-67
2021/01/07 10:47:53;;;;;;;41.65;16.50;;;;;;;-0.82;92.02;96470.03;4994334;28;20392;-67
2021/01/07 10:50:21;;;;;;;42.17;17.20;;;;;;;-0.78;91.82;96460.25;5009912;28;20054;-67
2021/01/07 10:53:14;;;;;;;39.63;17.42;;;;;;;-0.68;91.52;96470.03;5001229;28;20034;-67
2021/01/07 10:56:03;;;;;;;38.53;17.02;;;;;;;-0.78;91.27;96454.09;5008714;28;20172;-67
2021/01/07 10:58:54;;;;;;;40.42;16.83;;;;;;;-0.60;90.90;96461.25;5013279;28;20048;-65
2021/01/07 11:01:38;;;;;;;41.90;16.85;;;;;;;-0.53;91.41;96457.38;4993037;28;20046;-68
2021/01/07 11:04:46;;;;;;;37.40;17.15;;;;;;;-0.55;90.87;96456.88;5006932;28;20045;-69
2021/01/07 11:07:24;;;;;;;38.83;17.05;;;;;;;-0.56;90.41;96448.00;4990994;28;20050;-67
2021/01/07 11:09:54;;;;;;;40.35;16.50;;;;;;;-0.48;90.53;96447.31;5008154;28;20045;-66
2021/01/07 11:12:30;;;;;;;41.22;18.40;;;;;;;-0.25;89.32;96439.31;5007030;28;20149;-67
2021/01/07 11:15:02;;;;;;;42.50;18.60;;;;;;;-0.35;90.19;96436.81;4996071;28;20042;-65
2021/01/07 11:17:32;;;;;;;43.05;17.70;;;;;;;-0.22;89.48;96434.13;5011180;28;20041;-67
2021/01/07 11:20:01;;;;;;;42.45;17.95;;;;;;;-0.40;89.54;96426.97;5002419;28;20099;-67
2021/01/07 11:22:27;;;;;;;;;;;;;;;-0.07;88.71;96426.78;5009566;28;20049;-67